Kinloch, Missouri
Current Conditions -  °F | °C
As of 8:51 PM on Sunday 21 Dec 2014 (Local Time) from KSTL Reporting Station
Overcast Overcast  
Wind Chill: 37°   Ceiling: 5500
Heat Index: 44°   Visibility: 10mi
Dew Point: 31°   Wind: 16mph
Humidity: 60%   Direction: 140°SE
Pressure: 29.98"   Gusts: 21mph
Location:  38.7385°N, 90.325°W
Report Text: KSTL 220251Z 14014G18KT 10SM BKN055 OVC140 07/M01 A2998 RMK AO2 SLP156 T00671006 58014
Loading
Personal Weather Stations






























Interactive Weather Map New forecast layout! Learn more

10-Day Weather Forecast

Advertisements
Track Severe Weather on mobile